Arlington, Kansas
Current Conditions -  °F | °C
As of 5:52 PM on Friday 19 Dec 2014 (Local Time) from KHUT Reporting Station
Haze Haze  
Wind Chill: 32°   Ceiling: 1600
Heat Index: 37°   Visibility: 6mi
Dew Point: 34°   Wind: 7mph
Humidity: 89%   Direction: 160°SSE
Pressure: 30.16"   Gusts: NA
Location:  37.9°N, 98.18°W
Report Text: KHUT 192352Z 16006KT 6SM BR OVC016 03/01 A3016 RMK AO2 SLP217 T00280011 10039 20011 55002
Loading
Personal Weather Stations






























Interactive Weather Map New forecast layout! Learn more

10-Day Weather Forecast

Advertisements
Track Severe Weather on mobile